Time;durP1;ratioP1;P1;durP2;ratioP2;P2;SDS_P1;SDS_P2;PMS_P1;PMS_P2;Temp;Humidity;BMP_temperature;BMP_pressure;BME280_temperature;BME280_humidity;BME280_pressure;Samples;Min_cycle;Max_cycle;Signal;HPM_P1;HPM_P2
2022/03/30 00:00:13;;;;;;;49.08;23.45;;;;;;;5.52;74.60;97684.97;4194477;28;20063;-72
2022/03/30 00:02:14;;;;;;;49.80;22.63;;;;;;;5.47;74.56;97685.28;4195161;28;20040;-72
2022/03/30 00:04:15;;;;;;;44.13;22.27;;;;;;;5.44;74.89;97681.31;4189329;28;20029;-72
2022/03/30 00:06:15;;;;;;;48.70;24.67;;;;;;;5.44;74.17;97680.50;4191787;28;20394;-72
2022/03/30 00:08:15;;;;;;;45.83;22.58;;;;;;;5.44;74.07;97673.06;4191472;28;20032;-72
2022/03/30 00:10:16;;;;;;;40.08;20.70;;;;;;;5.42;74.53;97675.41;4192397;28;20549;-72
2022/03/30 00:12:16;;;;;;;46.08;22.58;;;;;;;5.40;75.40;97669.50;4190014;28;20036;-72
2022/03/30 00:14:16;;;;;;;48.13;22.98;;;;;;;5.39;75.26;97667.91;4194376;28;20024;-72
2022/03/30 00:16:17;;;;;;;48.30;22.75;;;;;;;5.35;75.85;97662.34;4194733;28;20033;-72
2022/03/30 00:18:18;;;;;;;41.55;20.83;;;;;;;5.38;75.10;97665.50;4193037;28;20321;-72
2022/03/30 00:20:19;;;;;;;48.42;22.73;;;;;;;5.37;75.02;97661.97;4197359;28;20024;-72
2022/03/30 00:22:20;;;;;;;45.90;22.35;;;;;;;5.35;74.51;97656.06;4193170;28;20468;-72
2022/03/30 00:24:20;;;;;;;48.05;22.85;;;;;;;5.36;74.66;97655.69;4197674;28;20047;-72
2022/03/30 00:26:21;;;;;;;49.90;23.88;;;;;;;5.38;74.13;97660.00;4195109;28;20051;-72
2022/03/30 00:28:23;;;;;;;46.92;22.17;;;;;;;5.34;75.68;97659.97;4193778;28;20040;-72
2022/03/30 00:30:24;;;;;;;48.70;23.20;;;;;;;5.35;74.99;97665.06;4190850;28;20068;-72
2022/03/30 00:32:24;;;;;;;46.28;21.67;;;;;;;5.34;75.43;97658.00;4193373;28;20428;-72
2022/03/30 00:34:24;;;;;;;47.53;23.00;;;;;;;5.34;75.30;97662.72;4195246;28;20036;-72
2022/03/30 00:36:25;;;;;;;44.33;22.55;;;;;;;5.30;76.02;97661.84;4193251;28;20132;-72
2022/03/30 00:38:25;;;;;;;46.65;21.55;;;;;;;5.28;76.79;97651.22;4191987;28;20155;-72
2022/03/30 00:40:27;;;;;;;45.10;22.00;;;;;;;5.29;77.01;97652.00;4199649;28;20119;-72
2022/03/30 00:42:27;;;;;;;45.40;24.63;;;;;;;5.30;76.79;97650.88;4197326;28;20112;-72
2022/03/30 00:44:27;;;;;;;47.28;22.20;;;;;;;5.27;77.08;97646.09;4188156;28;20135;-72
2022/03/30 00:46:27;;;;;;;45.42;22.30;;;;;;;5.25;76.90;97649.22;4194197;28;20533;-72
2022/03/30 00:48:28;;;;;;;48.38;23.52;;;;;;;5.25;77.20;97645.69;4194491;28;20123;-72
2022/03/30 00:50:28;;;;;;;47.00;23.67;;;;;;;5.24;77.60;97644.09;4190470;28;20054;-72
2022/03/30 00:52:28;;;;;;;47.10;22.58;;;;;;;5.20;77.41;97641.28;4192038;28;20328;-72
2022/03/30 00:54:29;;;;;;;47.17;23.33;;;;;;;5.19;77.58;97630.69;4194388;28;20607;-72
2022/03/30 00:56:31;;;;;;;48.88;23.30;;;;;;;5.19;78.08;97636.16;4195368;28;20136;-72
2022/03/30 00:58:32;;;;;;;51.33;23.13;;;;;;;5.17;78.06;97627.50;4189462;28;20239;-72
2022/03/30 01:00:32;;;;;;;49.70;23.27;;;;;;;5.16;77.77;97625.94;4198951;28;20060;-72
2022/03/30 01:02:32;;;;;;;46.55;21.27;;;;;;;5.16;77.47;97625.94;4193592;28;20388;-72
2022/03/30 01:04:33;;;;;;;47.80;22.95;;;;;;;5.19;77.51;97619.72;4195819;28;20079;-72
2022/03/30 01:06:33;;;;;;;49.65;24.75;;;;;;;5.17;79.93;97616.53;4191158;28;20479;-72
2022/03/30 01:08:34;;;;;;;47.72;23.55;;;;;;;5.17;79.91;97619.28;4195257;28;20045;-72
2022/03/30 01:10:34;;;;;;;54.58;24.42;;;;;;;5.14;80.26;97615.31;4196176;28;20133;-72
2022/03/30 01:12:38;;;;;;;46.50;23.25;;;;;;;5.15;79.28;97618.84;4191863;28;20364;-72
2022/03/30 01:14:39;;;;;;;48.67;23.27;;;;;;;5.14;77.90;97606.31;4199527;28;20036;-72
2022/03/30 01:16:40;;;;;;;48.95;23.52;;;;;;;5.19;77.60;97608.75;4194910;28;20038;-72
2022/03/30 01:18:41;;;;;;;47.58;23.33;;;;;;;5.20;77.99;97602.09;4193225;28;20045;-72
2022/03/30 01:20:47;;;;;;;46.42;22.95;;;;;;;5.17;78.42;97597.34;4193845;28;20089;-72
2022/03/30 01:22:48;;;;;;;57.17;23.40;;;;;;;5.16;80.16;97599.31;4196005;28;20091;-72
2022/03/30 01:24:49;;;;;;;48.47;22.83;;;;;;;5.12;80.00;97595.69;4194607;28;20040;-72
2022/03/30 01:26:49;;;;;;;47.78;24.00;;;;;;;5.11;79.63;97596.06;4190440;28;20043;-72
2022/03/30 01:28:50;;;;;;;49.50;23.52;;;;;;;5.11;79.20;97591.34;4197548;28;20036;-72
2022/03/30 01:33:09;;;;;;;44.90;22.05;;;;;;;5.08;80.29;97590.16;4196598;28;20070;-72
2022/03/30 01:35:13;;;;;;;48.50;25.13;;;;;;;5.06;79.87;97588.94;4194608;28;20492;-72
2022/03/30 01:37:14;;;;;;;54.95;26.83;;;;;;;5.06;80.50;97584.25;4193066;28;20316;-72
2022/03/30 01:39:15;;;;;;;51.40;23.38;;;;;;;5.03;80.55;97579.47;4194489;28;20549;-72
2022/03/30 01:41:15;;;;;;;46.38;22.63;;;;;;;5.04;80.23;97583.00;4193163;28;20043;-72
2022/03/30 01:43:16;;;;;;;51.08;24.15;;;;;;;5.04;80.25;97589.28;4193289;28;20416;-72
2022/03/30 01:45:16;;;;;;;55.42;25.52;;;;;;;5.01;80.28;97586.47;4197067;28;20040;-72
2022/03/30 01:47:17;;;;;;;49.63;23.40;;;;;;;4.98;80.93;97588.00;4195931;28;20486;-72
2022/03/30 01:49:21;;;;;;;54.38;25.67;;;;;;;4.97;80.87;97585.63;4192000;28;20056;-72
2022/03/30 01:51:21;;;;;;;46.72;22.48;;;;;;;4.96;80.58;97573.84;4193276;28;20188;-72
2022/03/30 01:53:21;;;;;;;49.08;23.55;;;;;;;5.01;79.31;97570.03;4189735;28;20093;-72
2022/03/30 01:55:22;;;;;;;55.95;26.65;;;;;;;4.98;79.29;97568.81;4196656;28;20441;-72
2022/03/30 01:57:23;;;;;;;46.35;22.77;;;;;;;5.00;80.04;97569.22;4193679;28;20036;-72
2022/03/30 01:59:23;;;;;;;51.10;24.20;;;;;;;5.00;80.87;97566.50;4193751;28;20032;-72
2022/03/30 02:01:24;;;;;;;55.30;24.15;;;;;;;4.99;79.91;97566.84;4190766;28;20118;-72
2022/03/30 02:03:27;;;;;;;46.75;24.77;;;;;;;5.03;79.60;97573.19;4189698;28;20048;-72
2022/03/30 02:05:28;;;;;;;52.95;24.58;;;;;;;5.06;80.14;97584.25;4192788;28;20044;-72
2022/03/30 02:07:29;;;;;;;50.10;25.85;;;;;;;5.05;79.74;97576.38;4196695;28;20113;-72
2022/03/30 02:09:29;;;;;;;51.80;24.27;;;;;;;5.04;79.44;97580.25;4199336;28;20123;-72
2022/03/30 02:11:30;;;;;;;44.05;22.73;;;;;;;5.00;79.60;97571.19;4197868;28;20045;-72
2022/03/30 02:13:30;;;;;;;46.10;22.38;;;;;;;4.97;78.57;97561.75;4197088;28;20389;-72
2022/03/30 02:15:31;;;;;;;51.17;22.88;;;;;;;4.94;79.21;97573.41;4195145;28;20116;-72
2022/03/30 02:17:32;;;;;;;48.05;23.08;;;;;;;4.94;79.25;97573.41;4196186;28;20044;-72
2022/03/30 02:19:33;;;;;;;47.38;23.30;;;;;;;4.91;79.59;97562.41;4196167;28;20402;-72
2022/03/30 02:21:34;;;;;;;46.03;22.17;;;;;;;4.92;78.99;97574.94;4195438;28;20040;-72
2022/03/30 02:23:34;;;;;;;48.50;23.60;;;;;;;4.87;79.40;97570.53;4195935;28;20404;-72
2022/03/30 02:25:35;;;;;;;54.10;22.70;;;;;;;4.86;78.96;97563.47;4197023;28;20045;-72
2022/03/30 02:27:36;;;;;;;47.78;22.70;;;;;;;4.86;79.88;97568.97;4197735;28;20047;-72
2022/03/30 02:29:37;;;;;;;47.83;23.17;;;;;;;4.84;79.59;97573.22;4197578;28;20165;-72
2022/03/30 02:31:37;;;;;;;49.95;22.30;;;;;;;4.85;79.94;97572.84;4197487;28;20044;-72
2022/03/30 02:33:37;;;;;;;49.05;22.83;;;;;;;4.88;79.94;97565.84;4196984;28;20281;-72
2022/03/30 02:35:38;;;;;;;47.78;22.02;;;;;;;4.88;79.53;97563.09;4197982;28;20048;-72
2022/03/30 02:37:38;;;;;;;55.67;24.65;;;;;;;4.85;79.63;97559.16;4199059;28;20045;-72
2022/03/30 02:39:39;;;;;;;48.33;24.33;;;;;;;4.88;79.65;97569.41;4196444;28;20048;-72
2022/03/30 02:41:40;;;;;;;51.42;21.98;;;;;;;4.81;79.75;97554.78;4194301;28;20408;-72
2022/03/30 02:43:40;;;;;;;43.58;21.83;;;;;;;4.81;79.91;97555.56;4196390;28;20105;-72
2022/03/30 02:45:40;;;;;;;43.40;21.55;;;;;;;4.81;79.62;97554.78;4197753;28;20101;-72
2022/03/30 02:50:00;;;;;;;47.80;20.67;;;;;;;4.72;80.29;97549.53;4199098;28;20368;-72
2022/03/30 02:52:00;;;;;;;42.05;18.85;;;;;;;4.70;79.80;97546.31;4190993;28;20033;-72
2022/03/30 02:54:00;;;;;;;47.13;20.17;;;;;;;4.68;79.78;97545.91;4195950;28;20653;-72
2022/03/30 02:56:02;;;;;;;43.28;19.38;;;;;;;4.67;80.26;97539.63;4195726;28;20519;-72
2022/03/30 02:58:04;;;;;;;44.05;20.10;;;;;;;4.67;79.71;97542.38;4195376;28;20378;-72
2022/03/30 03:00:06;;;;;;;46.30;19.33;;;;;;;4.62;80.00;97536.38;4197533;28;20036;-72
2022/03/30 03:02:06;;;;;;;42.17;19.45;;;;;;;4.60;80.80;97541.44;4195146;28;20024;-72
2022/03/30 03:04:06;;;;;;;46.42;20.48;;;;;;;4.55;82.09;97537.06;4192104;28;20025;-72
2022/03/30 03:06:07;;;;;;;41.50;19.92;;;;;;;4.57;81.70;97542.97;4200873;28;20116;-72
2022/03/30 03:08:10;;;;;;;42.47;19.45;;;;;;;4.57;82.35;97534.75;4195823;28;20056;-72
2022/03/30 03:10:11;;;;;;;42.30;19.95;;;;;;;4.58;81.66;97538.28;4189924;28;20020;-72
2022/03/30 03:12:11;;;;;;;40.42;19.25;;;;;;;4.58;82.09;97539.06;4196751;28;20432;-72
2022/03/30 03:14:11;;;;;;;42.92;20.17;;;;;;;4.58;82.04;97541.00;4195646;28;20453;-72
2022/03/30 03:16:14;;;;;;;43.25;19.40;;;;;;;4.56;81.76;97530.41;4190740;28;20111;-72
2022/03/30 03:18:15;;;;;;;40.65;18.52;;;;;;;4.57;81.48;97533.94;4193014;28;20039;-72
2022/03/30 03:20:15;;;;;;;43.58;19.80;;;;;;;4.54;82.33;97523.69;4195961;28;20444;-72
2022/03/30 03:22:16;;;;;;;41.10;20.35;;;;;;;4.56;81.82;97524.16;4195175;28;20051;-72
2022/03/30 03:24:16;;;;;;;46.83;20.58;;;;;;;4.52;83.18;97513.09;4194079;28;20489;-72
2022/03/30 03:26:16;;;;;;;45.42;21.42;;;;;;;4.51;83.30;97523.28;4188943;28;20032;-72
2022/03/30 03:28:17;;;;;;;43.70;19.30;;;;;;;4.51;82.84;97515.06;4199512;28;20047;-72
2022/03/30 03:30:18;;;;;;;41.97;20.50;;;;;;;4.51;82.50;97515.06;4191373;28;20114;-72
2022/03/30 03:32:18;;;;;;;40.65;18.85;;;;;;;4.50;83.13;97515.41;4192456;28;20036;-72
2022/03/30 03:34:18;;;;;;;42.45;19.48;;;;;;;4.48;83.16;97515.78;4198519;28;20378;-72
2022/03/30 03:36:19;;;;;;;49.30;18.73;;;;;;;4.48;83.04;97515.78;4192421;28;20032;-72
2022/03/30 03:38:20;;;;;;;47.33;21.35;;;;;;;4.44;83.41;97512.16;4193183;28;20039;-72
2022/03/30 03:40:20;;;;;;;42.40;18.92;;;;;;;4.43;83.66;97513.31;4194986;28;20052;-72
2022/03/30 03:42:21;;;;;;;43.30;18.63;;;;;;;4.42;83.34;97508.22;4192557;28;20539;-72
2022/03/30 03:44:21;;;;;;;45.00;19.83;;;;;;;4.40;83.78;97505.06;4198812;28;20043;-72
2022/03/30 03:46:22;;;;;;;42.30;18.98;;;;;;;4.42;83.30;97513.69;4194993;28;20103;-72
2022/03/30 03:48:22;;;;;;;41.63;17.27;;;;;;;4.38;83.75;97507.34;4194333;28;20047;-72
2022/03/30 03:50:23;;;;;;;41.05;17.20;;;;;;;4.36;83.97;97502.22;4200175;28;20377;-72
2022/03/30 03:52:23;;;;;;;37.78;17.30;;;;;;;4.35;84.06;97492.44;4194471;28;20044;-72
2022/03/30 03:54:23;;;;;;;35.67;17.23;;;;;;;4.34;84.54;97490.84;4194944;28;20472;-72
2022/03/30 03:56:23;;;;;;;38.70;16.30;;;;;;;4.28;85.59;97488.75;4192742;28;20116;-72
2022/03/30 03:58:24;;;;;;;33.05;14.35;;;;;;;4.27;84.82;97487.97;4191870;28;20098;-72
2022/03/30 04:00:24;;;;;;;34.83;14.40;;;;;;;4.22;85.87;97497.28;4200834;28;20101;-72
2022/03/30 04:02:25;;;;;;;29.88;14.20;;;;;;;4.22;86.00;97504.69;4194901;28;20043;-72
2022/03/30 04:04:25;;;;;;;32.97;12.98;;;;;;;4.16;85.49;97503.38;4196711;28;20044;-72
2022/03/30 04:06:25;;;;;;;30.35;14.10;;;;;;;4.14;85.88;97505.69;4193500;28;20056;-72
2022/03/30 04:08:26;;;;;;;28.88;13.85;;;;;;;4.19;85.28;97497.97;4191851;28;20144;-72
2022/03/30 04:10:26;;;;;;;29.45;12.55;;;;;;;4.12;84.63;97495.09;4191499;28;20040;-72
2022/03/30 04:12:27;;;;;;;23.10;11.93;;;;;;;4.11;84.70;97493.50;4195110;28;20424;-72
2022/03/30 04:14:27;;;;;;;23.35;10.73;;;;;;;4.05;84.99;97494.94;4194547;28;20495;-72
2022/03/30 04:16:27;;;;;;;35.33;12.13;;;;;;;4.04;84.62;97498.81;4192139;28;20048;-72
2022/03/30 04:18:28;;;;;;;25.73;11.20;;;;;;;4.03;85.17;97482.75;4191516;28;20514;-72
2022/03/30 04:20:28;;;;;;;23.73;10.88;;;;;;;3.98;85.81;97485.81;4196213;28;20040;-72
2022/03/30 04:22:28;;;;;;;20.25;10.15;;;;;;;3.94;86.24;97486.50;4196592;28;20040;-72
2022/03/30 04:24:29;;;;;;;26.48;12.32;;;;;;;3.90;86.04;97477.44;4194040;28;20302;-72
2022/03/30 04:26:29;;;;;;;25.80;11.55;;;;;;;3.92;85.48;97483.34;4194185;28;20071;-72
2022/03/30 04:28:30;;;;;;;24.05;10.82;;;;;;;3.90;85.41;97482.91;4193787;28;20045;-71
2022/03/30 04:30:30;;;;;;;27.92;12.85;;;;;;;3.88;85.60;97478.94;4192938;28;20040;-72
2022/03/30 04:32:31;;;;;;;23.02;11.05;;;;;;;3.88;85.68;97476.97;4191577;28;20139;-72
2022/03/30 04:34:31;;;;;;;23.70;11.23;;;;;;;3.86;85.59;97479.28;4192140;28;20348;-72
2022/03/30 04:36:31;;;;;;;27.42;9.93;;;;;;;3.83;84.65;97485.50;4195681;28;20814;-72
2022/03/30 04:38:33;;;;;;;20.95;10.60;;;;;;;3.83;84.39;97490.97;4191665;28;20114;-72
2022/03/30 04:40:33;;;;;;;23.17;10.80;;;;;;;3.84;85.14;97489.81;4195893;28;20050;-72
2022/03/30 04:42:34;;;;;;;23.20;11.43;;;;;;;3.85;84.40;97485.91;4134517;28;20770;-72
2022/03/30 04:44:34;;;;;;;21.23;10.20;;;;;;;3.87;84.10;97488.28;4197668;28;20071;-72
2022/03/30 04:46:34;;;;;;;23.83;10.75;;;;;;;3.83;84.88;97482.75;4190027;28;20055;-72
2022/03/30 04:48:36;;;;;;;20.80;9.13;;;;;;;3.81;85.55;97482.31;4185941;28;20195;-72
2022/03/30 04:50:36;;;;;;;20.73;9.88;;;;;;;3.83;85.93;97490.97;4195507;28;20051;-72
2022/03/30 04:52:38;;;;;;;26.27;10.48;;;;;;;3.83;86.65;97487.44;4192740;28;20083;-72
2022/03/30 04:54:38;;;;;;;23.13;10.93;;;;;;;3.82;86.30;97488.59;4193943;28;20121;-72
2022/03/30 04:56:38;;;;;;;27.40;9.93;;;;;;;3.76;87.80;97484.53;4192931;28;20326;-72
2022/03/30 04:58:39;;;;;;;18.75;9.10;;;;;;;3.70;87.58;97480.47;4192445;28;20370;-72
2022/03/30 05:00:41;;;;;;;22.08;10.40;;;;;;;3.63;87.30;97481.91;4195745;28;20048;-72
2022/03/30 05:02:41;;;;;;;19.70;8.82;;;;;;;3.61;87.13;97480.69;4188932;28;20067;-72
2022/03/30 05:04:42;;;;;;;18.45;8.10;;;;;;;3.60;86.80;97479.09;4190065;28;20056;-72
2022/03/30 05:06:42;;;;;;;22.98;7.90;;;;;;;3.52;87.27;97480.88;4192217;28;20049;-71
2022/03/30 05:08:43;;;;;;;22.38;9.45;;;;;;;3.48;87.22;97484.69;4190272;28;20040;-71
2022/03/30 05:10:46;;;;;;;21.08;8.60;;;;;;;3.47;86.49;97483.88;4194276;28;20052;-72
2022/03/30 05:12:46;;;;;;;20.58;7.90;;;;;;;3.42;87.01;97484.16;4191737;28;20086;-71
2022/03/30 05:14:47;;;;;;;19.45;7.68;;;;;;;3.35;87.91;97478.53;4188989;28;20048;-72
2022/03/30 05:16:47;;;;;;;19.65;7.72;;;;;;;3.26;88.25;97481.44;4188569;28;20147;-72
2022/03/30 05:18:48;;;;;;;16.23;7.57;;;;;;;3.26;88.24;97475.97;4189554;28;20106;-72
2022/03/30 05:20:48;;;;;;;15.88;7.38;;;;;;;3.23;88.44;97482.16;4191980;28;20119;-72
2022/03/30 05:22:48;;;;;;;17.63;7.72;;;;;;;3.18;88.67;97482.41;4195074;28;20125;-71
2022/03/30 05:24:49;;;;;;;18.98;7.45;;;;;;;3.12;89.47;97483.81;4196303;28;20367;-72
2022/03/30 05:26:50;;;;;;;15.32;7.55;;;;;;;3.12;90.07;97475.63;4192499;28;20040;-72
2022/03/30 05:28:50;;;;;;;19.92;8.27;;;;;;;3.15;90.04;97471.41;4192661;28;20040;-72
2022/03/30 05:30:51;;;;;;;20.65;7.72;;;;;;;3.15;90.20;97471.41;4193924;28;20032;-72
2022/03/30 05:32:52;;;;;;;16.52;7.40;;;;;;;3.14;90.50;97467.84;4193833;28;20029;-71
2022/03/30 05:34:52;;;;;;;19.52;7.85;;;;;;;3.20;89.66;97477.38;4196926;28;20471;-72
2022/03/30 05:36:52;;;;;;;16.00;7.05;;;;;;;3.14;90.48;97464.34;4200055;28;20040;-72
2022/03/30 05:38:53;;;;;;;19.67;8.02;;;;;;;3.09;90.83;97465.41;4195229;28;20039;-72
2022/03/30 05:40:53;;;;;;;16.40;7.25;;;;;;;3.06;90.97;97466.09;4192413;28;20056;-72
2022/03/30 05:42:54;;;;;;;21.77;8.55;;;;;;;3.00;90.99;97465.59;4196653;28;20054;-72
2022/03/30 05:44:55;;;;;;;17.25;7.20;;;;;;;3.01;90.72;97461.72;4195785;28;20048;-72
2022/03/30 05:46:55;;;;;;;14.05;7.00;;;;;;;3.00;91.59;97462.84;4196243;28;20078;-72
2022/03/30 05:48:55;;;;;;;16.98;8.65;;;;;;;3.03;90.41;97470.34;4191779;28;20290;-72
2022/03/30 05:50:56;;;;;;;15.60;6.57;;;;;;;2.98;89.76;97470.63;4195771;28;20031;-72
2022/03/30 05:52:57;;;;;;;15.13;7.00;;;;;;;3.00;90.90;97468.31;4195255;28;20070;-71
2022/03/30 05:54:58;;;;;;;14.07;7.20;;;;;;;2.99;90.88;97460.50;4192561;28;20044;-71
2022/03/30 05:57:00;;;;;;;14.27;7.30;;;;;;;2.96;91.73;97467.44;4190557;28;20036;-71
2022/03/30 05:59:01;;;;;;;18.80;7.80;;;;;;;2.91;91.93;97469.66;4196198;28;20440;-71
2022/03/30 06:01:01;;;;;;;16.15;6.55;;;;;;;2.95;91.12;97467.78;4190949;28;20072;-72
2022/03/30 06:03:02;;;;;;;20.48;7.50;;;;;;;2.94;92.60;97466.19;4196396;28;20154;-72
2022/03/30 06:05:03;;;;;;;20.30;7.18;;;;;;;2.95;92.71;97462.31;4195594;28;20291;-72
2022/03/30 06:07:04;;;;;;;19.85;7.35;;;;;;;2.93;92.48;97470.09;4193857;28;20127;-71
2022/03/30 06:09:07;;;;;;;21.75;7.15;;;;;;;2.95;92.82;97468.56;4188942;28;20437;-72
2022/03/30 06:11:07;;;;;;;;;;;;;;;2.95;92.08;97462.31;4188331;28;20111;-72
2022/03/30 06:13:08;;;;;;;14.70;6.45;;;;;;;2.95;91.30;97465.84;4194040;28;19948;-72
2022/03/30 06:15:09;;;;;;;16.20;7.10;;;;;;;2.98;90.89;97467.91;4193560;28;20040;-72
2022/03/30 06:17:10;;;;;;;24.13;7.57;;;;;;;2.97;90.42;97468.22;4190043;28;20044;-72
2022/03/30 06:19:11;;;;;;;22.63;8.20;;;;;;;2.95;91.61;97474.03;4195280;28;20074;-72
2022/03/30 06:21:12;;;;;;;22.13;8.30;;;;;;;2.93;91.84;97470.88;4194152;28;20035;-72
2022/03/30 06:23:12;;;;;;;18.75;7.28;;;;;;;2.87;94.10;97469.53;4190542;28;20063;-72
2022/03/30 06:25:12;;;;;;;22.88;9.82;;;;;;;2.83;94.29;97476.88;4193576;28;20064;-72
2022/03/30 06:27:13;;;;;;;17.75;8.27;;;;;;;2.85;93.36;97465.59;4192823;28;20435;-72
2022/03/30 06:29:13;;;;;;;20.95;8.82;;;;;;;2.86;92.72;97470.69;4194129;28;20036;-72
2022/03/30 06:31:17;;;;;;;18.75;9.27;;;;;;;2.89;92.94;97471.91;4191064;28;20454;-71
2022/03/30 06:33:17;;;;;;;24.45;8.48;;;;;;;2.90;92.77;97468.06;4192681;28;20323;-71
2022/03/30 06:35:19;;;;;;;21.08;8.10;;;;;;;2.89;92.66;97464.50;4189470;28;20758;-71
2022/03/30 06:37:19;;;;;;;12.63;7.38;;;;;;;2.91;93.00;97477.84;4196455;28;20058;-72
2022/03/30 06:39:20;;;;;;;15.82;7.13;;;;;;;2.96;92.28;97475.63;4195332;28;20044;-72
2022/03/30 06:41:20;;;;;;;28.58;9.93;;;;;;;2.96;92.92;97474.84;4193216;28;20045;-72
2022/03/30 06:43:21;;;;;;;18.85;7.88;;;;;;;2.95;92.01;97474.03;4188424;28;20140;-71
2022/03/30 06:45:22;;;;;;;17.35;7.85;;;;;;;2.89;93.44;97469.19;4199524;28;20295;-72
2022/03/30 06:47:22;;;;;;;19.38;7.90;;;;;;;2.96;91.51;97475.63;4192746;28;20073;-72
2022/03/30 06:49:22;;;;;;;20.73;7.97;;;;;;;2.96;89.99;97474.84;4196246;28;20048;-72
2022/03/30 06:51:23;;;;;;;15.55;7.82;;;;;;;2.95;90.66;97476.78;4192245;28;20541;-72
2022/03/30 06:53:24;;;;;;;20.63;8.57;;;;;;;2.88;90.62;97482.06;4194544;28;20139;-72
2022/03/30 06:55:24;;;;;;;19.17;8.38;;;;;;;2.80;91.32;97474.81;4196897;28;20393;-72
2022/03/30 06:57:27;;;;;;;14.45;8.25;;;;;;;2.74;90.47;97479.78;4199143;28;20043;-72
2022/03/30 06:59:27;;;;;;;16.75;7.65;;;;;;;2.71;91.63;97475.00;4195763;28;20160;-72
2022/03/30 07:01:28;;;;;;;20.73;7.30;;;;;;;2.66;92.64;97472.53;4198101;28;20064;-72
2022/03/30 07:03:29;;;;;;;18.55;8.85;;;;;;;2.64;92.98;97474.00;4196855;28;20128;-72
2022/03/30 07:05:31;;;;;;;17.45;7.85;;;;;;;2.66;91.86;97472.53;4194706;28;20504;-72
2022/03/30 07:12:12;;;;;;;16.45;8.95;;;;;;;2.78;91.78;97475.19;4195388;28;20085;-72
2022/03/30 07:14:12;;;;;;;18.48;8.27;;;;;;;2.75;91.02;97473.16;4203196;28;20036;-72
2022/03/30 07:16:13;;;;;;;17.08;8.73;;;;;;;2.68;92.34;97474.91;4196068;28;20414;-72
2022/03/30 07:18:13;;;;;;;19.75;9.18;;;;;;;2.61;92.64;97470.06;4196235;28;20414;-72
2022/03/30 07:20:15;;;;;;;19.35;8.88;;;;;;;2.65;90.99;97468.22;4198857;28;20028;-72
2022/03/30 07:22:15;;;;;;;16.85;7.93;;;;;;;2.62;90.76;97465.38;4199352;28;20036;-72
2022/03/30 07:24:15;;;;;;;19.17;9.20;;;;;;;2.64;90.70;97469.34;4203110;28;20476;-72
2022/03/30 07:26:16;;;;;;;25.42;13.43;;;;;;;2.66;89.73;97471.75;4192687;28;20135;-72
2022/03/30 07:28:17;;;;;;;34.88;14.20;;;;;;;2.68;89.92;97467.50;4194997;28;20039;-72
2022/03/30 07:30:19;;;;;;;25.08;12.50;;;;;;;2.56;90.99;97473.03;4195443;28;20107;-72
2022/03/30 07:32:20;;;;;;;22.88;12.43;;;;;;;2.52;90.97;97472.16;4197119;28;20383;-72
2022/03/30 07:34:20;;;;;;;23.33;11.57;;;;;;;2.48;90.64;97465.78;4196835;28;20044;-72
2022/03/30 07:36:20;;;;;;;22.08;11.35;;;;;;;2.44;91.15;97467.66;4197246;28;20063;-71
2022/03/30 07:38:21;;;;;;;27.67;13.35;;;;;;;2.40;90.73;97458.53;4198254;28;20047;-72
2022/03/30 07:40:24;;;;;;;22.10;11.82;;;;;;;2.38;91.24;97458.13;4199257;28;20036;-71
2022/03/30 07:42:25;;;;;;;28.35;14.32;;;;;;;2.41;90.15;97460.16;4195495;28;20037;-71
2022/03/30 07:44:27;;;;;;;24.67;12.93;;;;;;;2.48;90.28;97460.31;4196781;28;20064;-71
2022/03/30 07:46:27;;;;;;;27.90;12.98;;;;;;;2.48;89.31;97450.22;4196843;28;20044;-71
2022/03/30 07:48:27;;;;;;;33.35;15.93;;;;;;;2.44;89.96;97454.00;4192138;28;20036;-71
2022/03/30 07:50:28;;;;;;;30.70;15.50;;;;;;;2.39;90.00;97455.03;4197715;28;20143;-71
2022/03/30 07:52:29;;;;;;;33.53;15.43;;;;;;;2.49;88.83;97456.47;4198073;28;20441;-71
2022/03/30 07:54:29;;;;;;;35.40;16.30;;;;;;;2.53;88.64;97455.41;4198739;28;20040;-71
2022/03/30 07:56:31;;;;;;;35.65;19.60;;;;;;;2.56;88.58;97459.38;4195232;28;20040;-71
2022/03/30 07:58:32;;;;;;;132.10;71.40;;;;;;;2.51;88.84;97448.72;4199272;28;20048;-71
2022/03/30 08:00:33;;;;;;;123.85;71.32;;;;;;;2.44;89.79;97449.31;4196870;28;20048;-71
2022/03/30 08:02:33;;;;;;;87.90;52.92;;;;;;;2.39;90.22;97449.56;4193836;28;20040;-71
2022/03/30 08:04:34;;;;;;;61.30;32.10;;;;;;;2.33;90.62;97455.66;4195438;28;20040;-71
2022/03/30 08:06:34;;;;;;;31.48;20.63;;;;;;;2.28;90.10;97448.50;4196420;28;20590;-72
2022/03/30 08:08:34;;;;;;;21.17;11.88;;;;;;;2.34;89.71;97454.50;4188572;28;20033;-71
2022/03/30 08:10:37;;;;;;;18.85;10.32;;;;;;;2.30;90.74;97456.31;4198908;28;20040;-71
2022/03/30 08:12:38;;;;;;;;;;;;;;;2.23;91.64;97452.28;4196559;28;20515;-71
2022/03/30 08:14:38;;;;;;;20.75;9.38;;;;;;;2.14;92.60;97451.63;4197814;28;19915;-71
2022/03/30 08:16:39;;;;;;;25.00;10.43;;;;;;;2.10;92.73;97441.75;4194302;28;20545;-71
2022/03/30 08:18:40;;;;;;;25.83;9.80;;;;;;;2.10;92.64;97449.94;4194819;28;20384;-71
2022/03/30 08:23:08;;;;;;;18.25;9.40;;;;;;;2.08;92.66;97439.38;4181464;28;20455;-71
2022/03/30 08:25:10;;;;;;;25.58;9.98;;;;;;;2.09;92.45;97440.19;4194099;28;20436;-71
2022/03/30 08:27:10;;;;;;;20.45;10.70;;;;;;;2.09;93.48;97437.44;4194220;28;20399;-71
2022/03/30 08:29:11;;;;;;;25.90;12.57;;;;;;;2.14;92.28;97434.44;4192922;28;20068;-71
2022/03/30 08:31:11;;;;;;;21.27;11.50;;;;;;;2.14;92.40;97437.97;4197079;28;20135;-71
2022/03/30 08:33:12;;;;;;;33.08;12.45;;;;;;;2.13;93.37;97439.13;4194489;28;20039;-71
2022/03/30 08:35:13;;;;;;;25.60;10.43;;;;;;;2.11;94.12;97430.50;4194510;28;20059;-71
2022/03/30 08:37:13;;;;;;;18.00;9.65;;;;;;;2.13;93.21;97436.38;4193981;28;20081;-71
2022/03/30 08:39:14;;;;;;;23.77;9.82;;;;;;;2.14;93.48;97442.63;4197207;28;20043;-71
2022/03/30 08:41:14;;;;;;;19.90;9.90;;;;;;;2.17;93.40;97441.97;4197169;28;20456;-71
2022/03/30 08:43:15;;;;;;;19.10;9.60;;;;;;;2.17;92.26;97436.50;4197331;28;20048;-71
2022/03/30 08:45:16;;;;;;;18.15;9.82;;;;;;;2.17;92.46;97439.22;4193374;28;20049;-71
2022/03/30 08:47:17;;;;;;;20.65;9.88;;;;;;;2.14;92.75;97439.91;4201811;28;20121;-71
2022/03/30 08:49:17;;;;;;;37.95;11.93;;;;;;;2.12;92.71;97442.19;4196446;28;20051;-71
2022/03/30 08:51:20;;;;;;;24.65;11.13;;;;;;;2.04;92.96;97435.75;4189709;28;20496;-71
2022/03/30 08:53:22;;;;;;;21.13;10.25;;;;;;;2.03;91.85;97436.09;4194665;28;20040;-71
2022/03/30 08:55:23;;;;;;;20.25;10.35;;;;;;;2.00;92.21;97434.06;4195361;28;20122;-71
2022/03/30 08:57:23;;;;;;;20.48;9.48;;;;;;;1.95;93.04;97427.72;4192263;28;20075;-71
2022/03/30 08:59:24;;;;;;;21.88;9.30;;;;;;;1.94;92.94;97439.78;4194192;28;20418;-71
2022/03/30 09:01:25;;;;;;;18.90;10.43;;;;;;;1.95;92.63;97435.91;4192964;28;20494;-71
2022/03/30 09:03:25;;;;;;;27.77;11.48;;;;;;;1.92;92.63;97439.31;4192578;28;20311;-71
2022/03/30 09:05:31;;;;;;;26.65;12.13;;;;;;;1.94;93.13;97436.25;4196377;28;20040;-71
2022/03/30 09:07:32;;;;;;;35.95;13.75;;;;;;;1.90;92.58;97430.69;4195234;28;20054;-71
2022/03/30 09:09:38;;;;;;;19.42;10.25;;;;;;;1.89;93.48;97433.75;4196307;28;20044;-71
2022/03/30 09:11:40;;;;;;;21.42;10.43;;;;;;;1.92;92.43;97438.53;4188668;28;20476;-71
2022/03/30 09:13:41;;;;;;;18.67;9.67;;;;;;;1.89;92.19;97436.47;4195516;28;20163;-71
2022/03/30 09:15:41;;;;;;;20.67;10.32;;;;;;;1.87;92.77;97431.38;4196136;28;20078;-71
2022/03/30 09:17:43;;;;;;;20.23;9.07;;;;;;;1.91;91.50;97432.28;4196521;28;20050;-71
2022/03/30 09:19:44;;;;;;;22.60;11.40;;;;;;;1.97;91.57;97430.09;4194144;28;20557;-71
2022/03/30 09:21:53;;;;;;;15.93;9.38;;;;;;;2.02;90.70;97427.13;4194279;28;20207;-71
2022/03/30 09:23:53;;;;;;;18.55;10.85;;;;;;;2.06;90.32;97427.22;4195318;28;20488;-71
2022/03/30 09:25:53;;;;;;;15.98;9.18;;;;;;;1.97;91.35;97427.34;4192215;28;20098;-71
2022/03/30 09:27:55;;;;;;;19.75;10.43;;;;;;;1.95;91.69;97421.47;4195064;28;20409;-71
2022/03/30 09:29:56;;;;;;;23.27;10.35;;;;;;;1.92;91.86;97422.97;4193959;28;20032;-71
2022/03/30 09:31:56;;;;;;;16.05;9.65;;;;;;;1.91;91.69;97415.13;4194922;28;20037;-71
2022/03/30 09:34:01;;;;;;;21.15;10.80;;;;;;;1.90;91.48;97422.53;4195712;28;20041;-71
2022/03/30 09:36:01;;;;;;;14.88;10.10;;;;;;;1.84;91.78;97420.38;4189155;28;20102;-71